createdAt,value
2019-05-11T00:10:30.483Z,96415.12
2019-05-11T00:25:38.258Z,96407.67
2019-05-11T00:40:46.161Z,96406.45
2019-05-11T00:55:53.331Z,96402.54
2019-05-11T01:11:02.561Z,96415.55
2019-05-11T01:26:10.404Z,96429.77
2019-05-11T01:41:18.812Z,96434.78
2019-05-11T01:56:25.827Z,96429.21
2019-05-11T02:11:33.710Z,96424.68
2019-05-11T02:26:41.211Z,96428.44
2019-05-11T02:41:49.037Z,96433.11
2019-05-11T02:56:57.239Z,96445.06
2019-05-11T03:12:04.246Z,96448.45
2019-05-11T03:27:12.325Z,96457.84
2019-05-11T03:42:21.052Z,96471.58
2019-05-11T03:57:28.064Z,96476.09
2019-05-11T04:12:35.812Z,96484.64
2019-05-11T04:27:45.292Z,96488.97
2019-05-11T04:42:55.747Z,96495.59
2019-05-11T04:58:01.123Z,96508.66
2019-05-11T05:13:10.804Z,96526.86
2019-05-11T05:28:17.902Z,96529.80
2019-05-11T05:43:28.343Z,96521.04
2019-05-11T05:58:33.194Z,96521.64
2019-05-11T06:13:45.287Z,96536.72
2019-05-11T06:28:49.326Z,96538.41
2019-05-11T06:44:02.008Z,96539.56
2019-05-11T06:59:05.262Z,96534.41
2019-05-11T07:14:20.677Z,96521.41
2019-05-11T07:29:19.057Z,96520.91
2019-05-11T07:44:35.922Z,96511.53
2019-05-11T07:59:35.120Z,96512.10
2019-05-11T08:14:56.509Z,96506.98
2019-05-11T08:29:51.042Z,96499.23
2019-05-11T08:45:15.344Z,96477.95
2019-05-11T09:00:09.482Z,96484.97
2019-05-11T09:15:31.558Z,96462.13
2019-05-11T09:30:25.488Z,96462.13
2019-05-11T09:45:45.774Z,96456.79
2019-05-11T10:00:43.677Z,96451.34
2019-05-11T10:16:03.602Z,96439.20
2019-05-11T10:31:00.127Z,96451.72
2019-05-11T10:46:18.737Z,96445.42
2019-05-11T11:01:15.012Z,96429.33
2019-05-11T11:16:35.773Z,96435.64
2019-05-11T11:31:29.899Z,96418.12
2019-05-11T11:46:50.386Z,96413.05
2019-05-11T12:01:48.539Z,96409.22
2019-05-11T12:17:04.987Z,96401.63
2019-05-11T12:32:05.007Z,96396.64
2019-05-11T12:47:22.212Z,96399.80
2019-05-11T13:02:22.560Z,96396.73
2019-05-11T13:17:37.033Z,96391.67
2019-05-11T13:32:39.899Z,96378.08
2019-05-11T13:47:53.761Z,96370.81
2019-05-11T14:02:58.586Z,96364.87
2019-05-11T14:18:08.711Z,96366.57
2019-05-11T14:33:14.620Z,96371.64
2019-05-11T14:48:27.071Z,96380.30
2019-05-11T15:03:32.861Z,96365.86
2019-05-11T15:18:42.202Z,96363.90
2019-05-11T15:33:49.001Z,96364.17
2019-05-11T15:49:02.231Z,96362.53
2019-05-11T16:04:05.962Z,96375.92
2019-05-11T16:19:15.135Z,96364.20
2019-05-11T16:34:21.612Z,96363.52
2019-05-11T16:49:32.500Z,96374.80
2019-05-11T17:04:40.047Z,96389.64
2019-05-11T17:19:51.226Z,96403.95
2019-05-11T17:34:59.386Z,96416.90
2019-05-11T17:50:09.557Z,96420.94
2019-05-11T18:05:17.840Z,96438.44
2019-05-11T18:20:25.014Z,96438.20
2019-05-11T18:35:31.924Z,96445.39
2019-05-11T18:50:38.699Z,96447.44
2019-05-11T19:05:48.246Z,96465.37
2019-05-11T19:20:58.319Z,96486.61
2019-05-11T19:36:07.783Z,96499.25
2019-05-11T19:51:18.661Z,96492.63
2019-05-11T20:06:28.076Z,96499.08
2019-05-11T20:21:39.048Z,96516.19
2019-05-11T20:36:58.528Z,96520.08
2019-05-11T20:52:10.183Z,96540.86
2019-05-11T21:07:19.840Z,96547.93
2019-05-11T21:22:28.700Z,96538.63
2019-05-11T21:37:39.239Z,96549.17
2019-05-11T21:52:48.428Z,96553.98
2019-05-11T22:07:58.273Z,96575.80
2019-05-11T22:23:09.121Z,96578.75
2019-05-11T22:38:15.724Z,96583.75
2019-05-11T22:53:22.710Z,96585.09
2019-05-11T23:08:29.717Z,96596.59
2019-05-11T23:23:36.621Z,96594.24
2019-05-11T23:38:43.319Z,96607.44
2019-05-11T23:53:51.100Z,96606.77
